createdAt,value
2022-11-14T00:01:10.608Z,19.52
2022-11-14T00:03:58.103Z,20.83
2022-11-14T00:06:43.766Z,17.58
2022-11-14T00:09:29.499Z,17.88
2022-11-14T00:12:16.273Z,19.17
2022-11-14T00:15:02.487Z,18.05
2022-11-14T00:17:49.059Z,17.33
2022-11-14T00:20:36.041Z,13.82
2022-11-14T00:23:21.894Z,13.73
2022-11-14T00:26:07.515Z,12.93
2022-11-14T00:28:54.701Z,12.43
2022-11-14T00:31:40.481Z,13.00
2022-11-14T00:34:25.953Z,11.73
2022-11-14T00:37:11.571Z,11.65
2022-11-14T00:39:58.815Z,10.80
2022-11-14T00:42:45.475Z,11.20
2022-11-14T00:45:31.071Z,12.70
2022-11-14T00:48:16.757Z,12.23
2022-11-14T00:51:02.724Z,12.65
2022-11-14T00:53:48.405Z,12.50
2022-11-14T00:56:34.938Z,13.63
2022-11-14T00:59:20.376Z,12.73
2022-11-14T01:02:06.721Z,10.52
2022-11-14T01:04:53.725Z,12.45
2022-11-14T01:07:38.840Z,12.02
2022-11-14T01:10:24.719Z,12.38
2022-11-14T01:13:12.507Z,11.07
2022-11-14T01:16:01.512Z,11.32
2022-11-14T01:18:46.821Z,10.48
2022-11-14T01:21:32.439Z,11.07
2022-11-14T01:24:18.315Z,11.40
2022-11-14T01:27:03.849Z,11.57
2022-11-14T01:29:49.177Z,11.60
2022-11-14T01:32:35.349Z,10.90
2022-11-14T01:35:22.939Z,11.27
2022-11-14T01:38:13.208Z,11.15
2022-11-14T01:40:58.541Z,10.95
2022-11-14T01:43:45.320Z,11.18
2022-11-14T01:46:36.544Z,9.85
2022-11-14T01:49:37.936Z,10.20
2022-11-14T01:52:30.929Z,10.70
2022-11-14T01:55:17.521Z,11.20
2022-11-14T01:58:03.468Z,10.02
2022-11-14T02:00:49.335Z,9.77
2022-11-14T02:03:38.155Z,9.88
2022-11-14T02:06:27.386Z,10.05
2022-11-14T02:09:13.264Z,9.02
2022-11-14T02:12:01.984Z,9.95
2022-11-14T02:14:51.703Z,9.65
2022-11-14T02:17:37.171Z,9.55
2022-11-14T02:20:24.957Z,8.75
2022-11-14T02:23:11.822Z,8.98
2022-11-14T02:25:57.653Z,8.82
2022-11-14T02:28:43.110Z,9.55
2022-11-14T02:31:28.700Z,9.35
2022-11-14T02:34:16.823Z,8.80
2022-11-14T02:37:01.904Z,8.43
2022-11-14T02:39:48.167Z,8.57
2022-11-14T02:42:33.456Z,8.60
2022-11-14T02:45:21.042Z,8.57
2022-11-14T02:48:06.733Z,8.60
2022-11-14T02:50:53.111Z,8.43
2022-11-14T02:53:38.872Z,8.00
2022-11-14T02:56:25.508Z,8.43
2022-11-14T02:59:14.810Z,7.95
2022-11-14T03:02:00.792Z,9.23
2022-11-14T03:04:51.078Z,8.73
2022-11-14T03:07:36.623Z,8.90
2022-11-14T03:10:23.453Z,9.02
2022-11-14T03:13:09.762Z,8.23
2022-11-14T03:15:56.331Z,8.70
2022-11-14T03:18:42.693Z,8.80
2022-11-14T03:21:30.443Z,8.57
2022-11-14T03:24:16.099Z,9.10
2022-11-14T03:27:01.731Z,8.95
2022-11-14T03:29:50.217Z,9.00
2022-11-14T03:32:35.819Z,8.98
2022-11-14T03:35:22.529Z,8.48
2022-11-14T03:38:08.208Z,7.95
2022-11-14T03:40:54.519Z,8.05
2022-11-14T03:43:40.116Z,7.63
2022-11-14T03:46:25.810Z,7.80
2022-11-14T03:49:11.337Z,7.47
2022-11-14T03:51:56.821Z,8.00
2022-11-14T03:54:44.316Z,8.05
2022-11-14T03:57:29.776Z,7.60
2022-11-14T04:00:16.333Z,8.45
2022-11-14T04:03:01.757Z,8.10
2022-11-14T04:05:47.560Z,7.93
2022-11-14T04:08:33.559Z,7.25
2022-11-14T04:11:20.973Z,7.38
2022-11-14T04:14:06.765Z,8.05
2022-11-14T04:16:52.218Z,7.90
2022-11-14T04:19:37.751Z,8.18
2022-11-14T04:22:23.112Z,7.55
2022-11-14T04:25:10.197Z,7.40
2022-11-14T04:27:55.796Z,7.30
2022-11-14T04:30:42.531Z,7.68
2022-11-14T04:33:29.158Z,8.02
2022-11-14T04:36:14.741Z,7.93
2022-11-14T04:39:00.633Z,7.03
2022-11-14T04:41:46.209Z,7.80
2022-11-14T04:44:31.559Z,8.30
2022-11-14T04:47:19.452Z,7.95
2022-11-14T04:50:05.657Z,7.32
2022-11-14T04:52:53.618Z,7.75
2022-11-14T04:55:39.556Z,7.88
2022-11-14T04:58:28.295Z,8.02
2022-11-14T05:01:14.912Z,7.72
2022-11-14T05:04:00.606Z,7.80
2022-11-14T05:06:46.324Z,7.93
2022-11-14T05:09:32.243Z,7.32
2022-11-14T05:12:17.805Z,7.38
2022-11-14T05:15:03.723Z,8.02
2022-11-14T05:17:49.423Z,7.22
2022-11-14T05:20:36.426Z,6.90
2022-11-14T05:23:23.768Z,8.13
2022-11-14T05:26:12.269Z,8.35
2022-11-14T05:28:58.738Z,7.40
2022-11-14T05:31:45.335Z,7.35
2022-11-14T05:34:31.148Z,7.43
2022-11-14T05:37:17.475Z,7.65
2022-11-14T05:40:04.169Z,7.10
2022-11-14T05:42:49.759Z,7.75
2022-11-14T05:45:37.334Z,8.48
2022-11-14T05:48:24.332Z,8.20
2022-11-14T05:51:12.649Z,8.18
2022-11-14T05:53:58.167Z,8.52
2022-11-14T05:56:43.704Z,8.15
2022-11-14T05:59:30.038Z,8.15
2022-11-14T06:02:16.260Z,8.38
2022-11-14T06:05:02.020Z,8.90
2022-11-14T06:07:47.405Z,8.00
2022-11-14T06:10:35.569Z,8.50
2022-11-14T06:13:23.796Z,7.97
2022-11-14T06:16:15.223Z,8.98
2022-11-14T06:19:00.653Z,8.07
2022-11-14T06:21:46.200Z,8.98
2022-11-14T06:24:35.491Z,8.45
2022-11-14T06:27:21.164Z,8.82
2022-11-14T06:30:07.257Z,8.95
2022-11-14T06:32:58.374Z,9.45
2022-11-14T06:35:43.871Z,10.05
2022-11-14T06:38:32.616Z,10.68
2022-11-14T06:41:20.828Z,10.45
2022-11-14T06:44:08.281Z,11.98
2022-11-14T06:46:53.968Z,11.50
2022-11-14T06:49:40.903Z,12.15
2022-11-14T06:52:27.774Z,12.75
2022-11-14T06:55:13.394Z,12.70
2022-11-14T06:57:58.926Z,13.20
2022-11-14T07:00:44.502Z,11.75
2022-11-14T07:03:30.039Z,12.55
2022-11-14T07:06:21.362Z,13.23
2022-11-14T07:09:10.772Z,12.38
2022-11-14T07:11:59.504Z,12.27
2022-11-14T07:14:44.964Z,12.13
2022-11-14T07:17:31.619Z,11.98
2022-11-14T07:20:20.902Z,11.75
2022-11-14T07:23:06.447Z,11.70
2022-11-14T07:25:53.939Z,12.95
2022-11-14T07:28:47.049Z,12.40
2022-11-14T07:31:36.175Z,12.65
2022-11-14T07:34:22.033Z,12.27
2022-11-14T07:37:07.799Z,12.57
2022-11-14T07:39:53.345Z,11.90
2022-11-14T07:42:39.250Z,13.00
2022-11-14T07:45:24.709Z,12.07
2022-11-14T07:48:10.354Z,13.15
2022-11-14T07:51:04.511Z,12.15
2022-11-14T07:53:53.068Z,13.02
2022-11-14T07:56:38.673Z,12.80
2022-11-14T07:59:23.961Z,13.18
2022-11-14T08:02:13.630Z,12.13
2022-11-14T08:05:01.401Z,11.32
2022-11-14T08:07:47.308Z,10.82
2022-11-14T08:10:34.180Z,10.90
2022-11-14T08:13:35.130Z,12.07
2022-11-14T08:16:21.905Z,11.35
2022-11-14T08:19:07.497Z,11.52
2022-11-14T08:21:53.061Z,11.45
2022-11-14T08:24:38.691Z,11.40
2022-11-14T08:27:24.840Z,11.75
2022-11-14T08:30:11.178Z,13.20
2022-11-14T08:32:56.487Z,11.52
2022-11-14T08:35:42.208Z,11.98
2022-11-14T08:38:28.295Z,11.75
2022-11-14T08:41:14.853Z,11.15
2022-11-14T08:44:00.454Z,11.68
2022-11-14T08:46:46.676Z,11.20
2022-11-14T08:49:32.092Z,12.45
2022-11-14T08:52:18.856Z,11.75
2022-11-14T08:55:04.651Z,12.82
2022-11-14T08:57:54.163Z,12.63
2022-11-14T09:00:40.577Z,12.38
2022-11-14T09:03:27.545Z,11.68
2022-11-14T09:06:14.061Z,13.25
2022-11-14T09:09:00.483Z,13.18
2022-11-14T09:11:46.172Z,13.52
2022-11-14T09:14:31.898Z,13.70
2022-11-14T09:17:17.670Z,10.90
2022-11-14T09:20:03.277Z,13.40
2022-11-14T09:22:52.260Z,13.80
2022-11-14T09:25:38.669Z,11.10
2022-11-14T09:28:25.503Z,14.15
2022-11-14T09:31:13.157Z,12.73
2022-11-14T09:33:58.609Z,11.32
2022-11-14T09:36:44.601Z,14.20
2022-11-14T09:39:30.081Z,14.45
2022-11-14T09:42:36.820Z,15.38
2022-11-14T09:45:22.318Z,14.10
2022-11-14T09:48:24.820Z,14.82
2022-11-14T09:51:17.059Z,16.35
2022-11-14T09:54:20.011Z,15.63
2022-11-14T09:59:59.186Z,15.60
2022-11-14T10:03:14.519Z,16.55
2022-11-14T10:06:30.796Z,15.57
2022-11-14T10:09:19.546Z,14.02
2022-11-14T10:12:22.795Z,16.30
2022-11-14T10:15:22.636Z,16.30
2022-11-14T10:18:22.492Z,16.65
2022-11-14T10:21:11.051Z,16.27
2022-11-14T10:24:34.361Z,16.27
2022-11-14T10:27:30.061Z,15.25
2022-11-14T10:30:20.161Z,15.27
2022-11-14T10:33:17.752Z,15.35
2022-11-14T10:36:17.409Z,14.88
2022-11-14T10:39:21.970Z,13.90
2022-11-14T10:42:15.551Z,14.27
2022-11-14T10:45:17.410Z,13.23
2022-11-14T10:48:44.110Z,14.15
2022-11-14T10:51:34.858Z,14.50
2022-11-14T10:54:23.611Z,15.55
2022-11-14T10:57:19.483Z,16.63
2022-11-14T11:00:16.965Z,16.83
2022-11-14T11:03:04.208Z,17.73
2022-11-14T11:05:54.828Z,17.02
2022-11-14T11:09:02.770Z,17.48
2022-11-14T11:11:58.811Z,18.33
2022-11-14T11:15:16.165Z,17.77
2022-11-14T11:18:26.891Z,16.00
2022-11-14T11:21:14.760Z,17.98
2022-11-14T11:24:00.267Z,17.88
2022-11-14T11:26:47.075Z,15.15
2022-11-14T11:29:32.556Z,18.85
2022-11-14T11:32:29.262Z,17.38
2022-11-14T11:35:16.961Z,16.23
2022-11-14T11:38:05.292Z,19.52
2022-11-14T11:41:33.271Z,19.40
2022-11-14T11:44:39.661Z,19.25
2022-11-14T11:47:26.858Z,18.13
2022-11-14T11:50:17.793Z,18.40
2022-11-14T11:53:26.411Z,18.80
2022-11-14T11:56:12.993Z,19.63
2022-11-14T11:59:34.643Z,19.23
2022-11-14T12:02:26.472Z,20.40
2022-11-14T12:05:16.916Z,21.00
2022-11-14T12:08:14.088Z,20.27
2022-11-14T12:11:04.650Z,20.08
2022-11-14T12:14:01.000Z,21.15
2022-11-14T12:16:52.913Z,21.67
2022-11-14T12:19:41.502Z,20.40
2022-11-14T12:22:55.883Z,21.85
2022-11-14T12:25:57.245Z,21.58
2022-11-14T12:29:10.117Z,20.30
2022-11-14T12:32:03.680Z,22.67
2022-11-14T12:34:50.048Z,24.10
2022-11-14T12:37:51.308Z,23.83
2022-11-14T12:40:57.707Z,24.58
2022-11-14T12:43:44.734Z,25.75
2022-11-14T12:47:06.736Z,23.88
2022-11-14T12:49:52.878Z,22.45
2022-11-14T12:52:41.274Z,25.90
2022-11-14T12:55:31.040Z,25.20
2022-11-14T12:58:58.246Z,25.65
2022-11-14T13:01:54.409Z,25.80
2022-11-14T13:05:02.733Z,24.70
2022-11-14T13:08:00.484Z,25.17
2022-11-14T13:10:47.351Z,26.95
2022-11-14T13:14:11.904Z,25.30
2022-11-14T13:17:34.576Z,25.75
2022-11-14T13:20:53.514Z,26.08
2022-11-14T13:23:43.166Z,25.90
2022-11-14T13:26:32.403Z,28.40
2022-11-14T13:29:36.732Z,26.73
2022-11-14T13:32:41.072Z,24.50
2022-11-14T13:35:50.077Z,29.75
2022-11-14T13:38:51.134Z,26.92
2022-11-14T13:42:10.315Z,24.13
2022-11-14T13:45:13.717Z,28.63
2022-11-14T13:48:26.412Z,28.20
2022-11-14T13:51:41.841Z,26.70
2022-11-14T13:54:23.717Z,27.88
2022-11-14T13:57:32.254Z,26.73
2022-11-14T14:00:21.285Z,23.10
2022-11-14T14:03:13.127Z,26.90
2022-11-14T14:06:13.497Z,24.55
2022-11-14T14:09:15.388Z,28.52
2022-11-14T14:12:44.636Z,28.88
2022-11-14T14:15:41.917Z,26.98
2022-11-14T14:18:41.448Z,26.20
2022-11-14T14:21:55.007Z,25.80
2022-11-14T14:27:58.458Z,25.90
2022-11-14T14:31:10.405Z,24.92
2022-11-14T14:33:55.655Z,23.58
2022-11-14T14:36:50.965Z,25.90
2022-11-14T14:39:37.828Z,21.65
2022-11-14T14:42:27.541Z,23.25
2022-11-14T14:48:12.886Z,20.08
2022-11-14T14:53:56.338Z,23.70
2022-11-14T14:56:54.153Z,20.05
2022-11-14T14:59:42.229Z,22.33
2022-11-14T15:02:29.565Z,24.63
2022-11-14T15:05:29.387Z,24.63
2022-11-14T15:08:17.209Z,23.40
2022-11-14T15:11:03.914Z,21.15
2022-11-14T15:13:55.249Z,23.58
2022-11-14T15:16:44.363Z,22.17
2022-11-14T15:19:43.174Z,18.45
2022-11-14T15:22:33.015Z,19.13
2022-11-14T15:25:20.431Z,19.95
2022-11-14T15:28:19.761Z,20.80
2022-11-14T15:31:05.805Z,20.67
2022-11-14T15:34:21.714Z,18.70
2022-11-14T15:37:14.801Z,19.98
2022-11-14T15:40:20.989Z,17.63
2022-11-14T15:43:44.823Z,20.23
2022-11-14T15:46:43.882Z,20.13
2022-11-14T15:49:29.347Z,19.33
2022-11-14T15:52:28.949Z,17.58
2022-11-14T15:55:20.883Z,16.45
2022-11-14T15:58:28.721Z,17.70
2022-11-14T16:01:24.032Z,16.17
2022-11-14T16:04:19.155Z,17.77
2022-11-14T16:07:07.108Z,18.48
2022-11-14T16:09:52.719Z,14.55
2022-11-14T16:12:40.502Z,16.20
2022-11-14T16:15:26.024Z,16.90
2022-11-14T16:18:12.332Z,16.33
2022-11-14T16:20:59.673Z,17.27
2022-11-14T16:23:45.465Z,14.18
2022-11-14T16:26:31.356Z,15.93
2022-11-14T16:29:19.760Z,14.63
2022-11-14T16:32:05.404Z,15.82
2022-11-14T16:34:51.023Z,15.38
2022-11-14T16:37:37.962Z,17.30
2022-11-14T16:40:28.026Z,15.75
2022-11-14T16:43:15.210Z,15.43
2022-11-14T16:46:05.505Z,16.42
2022-11-14T16:48:52.520Z,15.95
2022-11-14T16:51:47.640Z,15.95
2022-11-14T16:54:37.071Z,15.98
2022-11-14T16:57:24.502Z,16.50
2022-11-14T17:00:12.871Z,15.52
2022-11-14T17:02:59.328Z,16.52
2022-11-14T17:05:52.064Z,15.27
2022-11-14T17:08:37.929Z,17.52
2022-11-14T17:11:26.201Z,15.90
2022-11-14T17:14:13.656Z,17.08
2022-11-14T17:17:03.340Z,17.52
2022-11-14T17:19:52.449Z,16.65
2022-11-14T17:22:38.220Z,17.23
2022-11-14T17:25:25.739Z,17.65
2022-11-14T17:28:14.401Z,18.10
2022-11-14T17:31:00.420Z,19.17
2022-11-14T17:33:57.055Z,18.25
2022-11-14T17:36:46.201Z,18.80
2022-11-14T17:39:35.730Z,19.05
2022-11-14T17:42:23.398Z,18.65
2022-11-14T17:45:09.599Z,19.80
2022-11-14T17:47:56.738Z,18.63
2022-11-14T17:50:44.526Z,18.23
2022-11-14T17:53:34.540Z,17.23
2022-11-14T17:56:23.824Z,19.75
2022-11-14T17:59:10.245Z,21.83
2022-11-14T18:02:00.401Z,20.80
2022-11-14T18:04:48.842Z,22.98
2022-11-14T18:07:34.406Z,21.25
2022-11-14T18:10:20.012Z,22.40
2022-11-14T18:13:06.440Z,22.33
2022-11-14T18:15:52.620Z,23.23
2022-11-14T18:18:39.922Z,22.52
2022-11-14T18:21:26.378Z,24.75
2022-11-14T18:24:15.126Z,23.63
2022-11-14T18:27:01.283Z,25.10
2022-11-14T18:29:46.942Z,23.42
2022-11-14T18:32:32.454Z,25.48
2022-11-14T18:35:18.201Z,25.50
2022-11-14T18:38:04.884Z,25.88
2022-11-14T18:40:56.930Z,25.15
2022-11-14T18:43:44.510Z,24.33
2022-11-14T18:46:36.891Z,26.13
2022-11-14T18:49:23.391Z,23.55
2022-11-14T18:52:15.809Z,27.00
2022-11-14T18:55:29.439Z,28.67
2022-11-14T18:58:15.193Z,23.50
2022-11-14T19:01:12.328Z,26.40
2022-11-14T19:04:00.006Z,25.30
2022-11-14T19:06:46.569Z,25.50
2022-11-14T19:09:33.404Z,23.95
2022-11-14T19:12:22.016Z,25.02
2022-11-14T19:15:11.255Z,24.17
2022-11-14T19:17:58.454Z,23.38
2022-11-14T19:20:59.153Z,26.90
2022-11-14T19:23:46.586Z,25.58
2022-11-14T19:26:32.242Z,25.73
2022-11-14T19:29:17.743Z,27.08
2022-11-14T19:32:05.875Z,24.67
2022-11-14T19:34:51.605Z,25.83
2022-11-14T19:37:36.927Z,26.30
2022-11-14T19:40:23.987Z,27.02
2022-11-14T19:43:11.456Z,26.73
2022-11-14T19:46:02.768Z,26.13
2022-11-14T19:48:51.093Z,26.98
2022-11-14T19:51:36.805Z,27.50
2022-11-14T19:54:22.766Z,23.05
2022-11-14T19:57:10.129Z,21.65
2022-11-14T19:59:55.935Z,26.05
2022-11-14T20:02:41.473Z,26.75
2022-11-14T20:05:27.834Z,26.92
2022-11-14T20:08:13.566Z,25.38
2022-11-14T20:11:01.736Z,28.25
2022-11-14T20:13:48.071Z,20.00
2022-11-14T20:16:36.606Z,28.27
2022-11-14T20:19:22.299Z,28.40
2022-11-14T20:22:10.466Z,23.60
2022-11-14T20:24:55.972Z,29.40
2022-11-14T20:27:42.753Z,29.15
2022-11-14T20:30:28.918Z,28.92
2022-11-14T20:33:19.093Z,27.83
2022-11-14T20:36:06.595Z,26.63
2022-11-14T20:38:53.618Z,25.98
2022-11-14T20:41:39.355Z,27.67
2022-11-14T20:44:28.700Z,27.52
2022-11-14T20:47:18.570Z,25.83
2022-11-14T20:50:04.780Z,27.88
2022-11-14T20:52:51.627Z,25.70
2022-11-14T20:55:37.818Z,27.92
2022-11-14T20:58:25.066Z,28.90
2022-11-14T21:01:11.793Z,31.08
2022-11-14T21:03:59.855Z,27.42
2022-11-14T21:06:45.873Z,23.58
2022-11-14T21:09:39.490Z,25.98
2022-11-14T21:16:45.683Z,27.17
2022-11-14T21:19:31.597Z,27.83
2022-11-14T21:22:17.385Z,28.15
2022-11-14T21:25:03.880Z,30.15
2022-11-14T21:27:49.382Z,29.67
2022-11-14T21:30:35.451Z,27.20
2022-11-14T21:33:21.522Z,29.65
2022-11-14T21:36:42.844Z,28.08
2022-11-14T21:39:18.532Z,29.58
2022-11-14T21:42:04.494Z,26.00
2022-11-14T21:44:49.804Z,27.73
2022-11-14T21:47:40.489Z,27.33
2022-11-14T21:50:26.019Z,23.88
2022-11-14T21:53:16.101Z,22.70
2022-11-14T21:56:24.521Z,23.25
2022-11-14T21:59:17.680Z,24.67
2022-11-14T22:05:09.636Z,21.60
2022-11-14T22:11:03.624Z,21.23
2022-11-14T22:13:50.407Z,20.88
2022-11-14T22:16:38.243Z,24.00
2022-11-14T22:19:25.781Z,23.30
2022-11-14T22:22:11.324Z,21.83
2022-11-14T22:24:56.756Z,22.25
2022-11-14T22:27:45.698Z,21.85
2022-11-14T22:30:30.853Z,21.50
2022-11-14T22:33:16.406Z,20.95
2022-11-14T22:36:13.906Z,21.17
2022-11-14T22:39:00.885Z,21.92
2022-11-14T22:41:46.410Z,19.95
2022-11-14T22:44:31.882Z,20.15
2022-11-14T22:47:17.495Z,20.65
2022-11-14T22:50:04.155Z,19.45
2022-11-14T22:52:49.504Z,20.10
2022-11-14T22:55:37.665Z,18.33
2022-11-14T22:58:24.383Z,18.95
2022-11-14T23:01:21.611Z,19.15
2022-11-14T23:04:09.814Z,17.23
2022-11-14T23:06:56.115Z,19.50
2022-11-14T23:09:44.764Z,16.35
2022-11-14T23:12:30.082Z,18.08
2022-11-14T23:15:15.609Z,17.50
2022-11-14T23:18:02.400Z,17.75
2022-11-14T23:20:51.339Z,15.50
2022-11-14T23:23:37.392Z,16.88
2022-11-14T23:26:24.823Z,18.35
2022-11-14T23:29:14.845Z,18.98
2022-11-14T23:32:01.501Z,21.17
2022-11-14T23:34:47.520Z,22.20
2022-11-14T23:37:34.475Z,20.23
2022-11-14T23:40:20.328Z,21.95
2022-11-14T23:43:05.664Z,21.77
2022-11-14T23:45:52.139Z,20.98
2022-11-14T23:48:37.512Z,21.52
2022-11-14T23:51:23.064Z,21.27
2022-11-14T23:54:11.195Z,21.95
2022-11-14T23:57:02.906Z,21.92
